Time;durP1;ratioP1;P1;durP2;ratioP2;P2;SDS_P1;SDS_P2;PMS_P1;PMS_P2;Temp;Humidity;BMP_temperature;BMP_pressure;BME280_temperature;BME280_humidity;BME280_pressure;Samples;Min_cycle;Max_cycle;Signal;HPM_P1;HPM_P2
2022/05/19 00:01:20;;;;;;;;;;;16.70;99.90;;;;;;5073110;28;19920;-80
2022/05/19 00:03:46;;;;;;;;;;;16.60;99.90;;;;;;5054495;28;19921;-81
2022/05/19 00:06:11;;;;;;;;;;;16.70;99.90;;;;;;5072956;28;20644;-80
2022/05/19 00:08:37;;;;;;;;;;;16.60;99.90;;;;;;5072710;28;20331;-80
2022/05/19 00:11:05;;;;;;;;;;;16.60;99.90;;;;;;5072408;28;19920;-80
2022/05/19 00:13:31;;;;;;;;;;;16.60;99.90;;;;;;5072545;28;19928;-80
2022/05/19 00:15:57;;;;;;;;;;;16.50;99.90;;;;;;5072500;28;19920;-80
2022/05/19 00:18:22;;;;;;;;;;;16.50;99.90;;;;;;5087580;28;20491;-81
2022/05/19 00:20:48;;;;;;;;;;;16.50;99.90;;;;;;5054436;28;20026;-80
2022/05/19 00:23:14;;;;;;;;;;;16.50;99.90;;;;;;5054702;28;20302;-81
2022/05/19 00:25:40;;;;;;;;;;;16.60;99.90;;;;;;5071964;28;19928;-80
2022/05/19 00:28:05;;;;;;;;;;;16.50;99.90;;;;;;5072341;28;19948;-80
2022/05/19 00:30:32;;;;;;;;;;;16.60;99.90;;;;;;5068962;28;19924;-80
2022/05/19 00:32:58;;;;;;;;;;;16.60;99.90;;;;;;5067962;28;19972;-82
2022/05/19 00:35:23;;;;;;;;;;;16.50;99.90;;;;;;5054386;28;19971;-80
2022/05/19 00:37:49;;;;;;;;;;;16.50;99.90;;;;;;5037779;28;19921;-80
2022/05/19 00:40:16;;;;;;;;;;;16.50;99.90;;;;;;5071493;28;19928;-80
2022/05/19 00:42:45;;;;;;;;;;;16.50;99.90;;;;;;5072211;28;19921;-80
2022/05/19 00:45:18;;;;;;;;;;;16.50;99.90;;;;;;5087754;28;19920;-80
2022/05/19 00:47:46;;;;;;;;;;;16.60;99.90;;;;;;5070764;28;19924;-79
2022/05/19 00:50:23;;;;;;;;;;;16.60;99.90;;;;;;5071422;28;19927;-80
2022/05/19 00:52:50;;;;;;;;;;;16.60;99.90;;;;;;5053468;28;19981;-80
2022/05/19 00:55:24;;;;;;;;;;;16.60;99.90;;;;;;5071685;28;19951;-80
2022/05/19 00:57:54;;;;;;;;;;;16.60;99.90;;;;;;5033933;28;20385;-79
2022/05/19 01:00:21;;;;;;;;;;;16.60;99.90;;;;;;5051664;28;20357;-80
2022/05/19 01:02:57;;;;;;;;;;;16.60;99.90;;;;;;5051436;28;19921;-80
2022/05/19 01:05:22;;;;;;;;;;;16.60;99.90;;;;;;5063343;28;19958;-79
2022/05/19 01:07:56;;;;;;;;;;;16.50;99.90;;;;;;5071546;28;20370;-80
2022/05/19 01:10:22;;;;;;;;;;;16.50;99.90;;;;;;5087126;28;19932;-80
2022/05/19 01:12:49;;;;;;;;;;;16.50;99.90;;;;;;5071439;28;19920;-80
2022/05/19 01:15:15;;;;;;;;;;;16.50;99.90;;;;;;5053925;28;20293;-80
2022/05/19 01:17:40;;;;;;;;;;;16.50;99.90;;;;;;5070979;28;19924;-80
2022/05/19 01:20:14;;;;;;;;;;;16.50;99.90;;;;;;5069883;28;19994;-79
2022/05/19 01:22:40;;;;;;;;;;;16.40;99.90;;;;;;5052208;28;19924;-80
2022/05/19 01:25:15;;;;;;;;;;;16.40;99.90;;;;;;5086520;28;19966;-80
2022/05/19 01:27:41;;;;;;;;;;;16.30;99.90;;;;;;5071020;28;20299;-80
2022/05/19 01:30:08;;;;;;;;;;;16.40;99.90;;;;;;5071328;28;19926;-80
2022/05/19 01:32:33;;;;;;;;;;;16.40;99.90;;;;;;5070429;28;19924;-79
2022/05/19 01:34:59;;;;;;;;;;;16.40;99.90;;;;;;5053076;28;20281;-81
2022/05/19 01:37:25;;;;;;;;;;;16.40;99.90;;;;;;5070940;28;19920;-81
2022/05/19 01:40:00;;;;;;;;;;;16.40;99.90;;;;;;5071029;28;19920;-80
2022/05/19 01:42:26;;;;;;;;;;;16.40;99.90;;;;;;5052832;28;19926;-80
2022/05/19 01:44:59;;;;;;;;;;;16.40;99.90;;;;;;5070802;28;20301;-80
2022/05/19 01:47:45;;;;;;;;;;;16.40;99.90;;;;;;5053013;28;19927;-80
2022/05/19 01:50:17;;;;;;;;;;;16.40;99.90;;;;;;5045288;28;19920;-81
2022/05/19 01:52:50;;;;;;;;;;;16.50;99.90;;;;;;5070339;28;19920;-80
2022/05/19 01:55:16;;;;;;;;;;;16.50;99.90;;;;;;5070708;28;19944;-80
2022/05/19 01:57:50;;;;;;;;;;;16.40;99.90;;;;;;5052582;28;20360;-80
2022/05/19 02:00:20;;;;;;;;;;;16.40;99.90;;;;;;5051736;28;19927;-80
2022/05/19 02:02:48;;;;;;;;;;;16.40;99.90;;;;;;5052713;28;19950;-80
2022/05/19 02:05:29;;;;;;;;;;;16.40;99.90;;;;;;5070440;28;20385;-80
2022/05/19 02:07:57;;;;;;;;;;;16.40;99.90;;;;;;5060986;28;20425;-80
2022/05/19 02:10:27;;;;;;;;;;;16.40;99.90;;;;;;5070044;28;19920;-80
2022/05/19 02:12:54;;;;;;;;;;;16.40;99.90;;;;;;5035956;28;19920;-80
2022/05/19 02:15:22;;;;;;;;;;;16.30;99.90;;;;;;5070060;28;19928;-80
2022/05/19 02:17:49;;;;;;;;;;;16.30;99.90;;;;;;5052172;28;19924;-80
2022/05/19 02:20:15;;;;;;;;;;;16.30;99.90;;;;;;5070398;28;20350;-80
2022/05/19 02:22:45;;;;;;;;;;;16.30;99.90;;;;;;5052207;28;19920;-80
2022/05/19 02:25:29;;;;;;;;;;;16.30;99.90;;;;;;5070143;28;19920;-79
2022/05/19 02:27:56;;;;;;;;;;;16.30;99.90;;;;;;5070247;28;19989;-80
2022/05/19 02:30:24;;;;;;;;;;;16.30;99.90;;;;;;5069626;28;19926;-80
2022/05/19 02:32:50;;;;;;;;;;;16.30;99.90;;;;;;5051882;28;19927;-80
2022/05/19 02:35:16;;;;;;;;;;;16.30;99.90;;;;;;5070044;28;19925;-79
2022/05/19 02:37:42;;;;;;;;;;;16.30;99.90;;;;;;5070128;28;19959;-80
2022/05/19 02:40:08;;;;;;;;;;;16.30;99.90;;;;;;5052247;28;19974;-80
2022/05/19 02:42:33;;;;;;;;;;;16.30;99.90;;;;;;5069676;28;20386;-79
2022/05/19 02:44:59;;;;;;;;;;;16.40;99.90;;;;;;5069515;28;19926;-80
2022/05/19 02:47:24;;;;;;;;;;;16.30;99.90;;;;;;5069963;28;20418;-80
2022/05/19 02:49:50;;;;;;;;;;;16.30;99.90;;;;;;5069824;28;19920;-80
2022/05/19 02:52:16;;;;;;;;;;;16.30;99.90;;;;;;5051058;28;19924;-80
2022/05/19 02:54:41;;;;;;;;;;;16.30;99.90;;;;;;5070045;28;19924;-81
2022/05/19 02:57:07;;;;;;;;;;;16.40;99.90;;;;;;5069894;28;19921;-80
2022/05/19 02:59:32;;;;;;;;;;;16.30;99.90;;;;;;5069776;28;19921;-80
2022/05/19 03:01:58;;;;;;;;;;;16.40;99.90;;;;;;5069381;28;19920;-80
2022/05/19 03:04:24;;;;;;;;;;;16.40;99.90;;;;;;5069898;28;20390;-80
2022/05/19 03:06:49;;;;;;;;;;;16.40;99.90;;;;;;5069768;28;19920;-80
2022/05/19 03:09:15;;;;;;;;;;;16.40;99.90;;;;;;5069756;28;20011;-79
2022/05/19 03:11:40;;;;;;;;;;;16.40;99.90;;;;;;5069511;28;19925;-80
2022/05/19 03:14:06;;;;;;;;;;;16.40;99.90;;;;;;5073444;28;19927;-80
2022/05/19 03:16:31;;;;;;;;;;;16.40;99.90;;;;;;5073152;28;19921;-80
2022/05/19 03:18:57;;;;;;;;;;;16.40;99.90;;;;;;5073676;28;19924;-79
2022/05/19 03:21:22;;;;;;;;;;;16.50;99.90;;;;;;5073490;28;19931;-80
2022/05/19 03:23:48;;;;;;;;;;;16.50;99.90;;;;;;5072717;28;20325;-79
2022/05/19 03:26:13;;;;;;;;;;;16.50;99.90;;;;;;5072770;28;19931;-80
2022/05/19 03:28:39;;;;;;;;;;;16.50;99.90;;;;;;5073337;28;20381;-80
2022/05/19 03:31:04;;;;;;;;;;;16.50;99.90;;;;;;5038853;28;19924;-79
2022/05/19 03:33:30;;;;;;;;;;;16.50;99.90;;;;;;5073058;28;19920;-80
2022/05/19 03:35:59;;;;;;;;;;;16.60;99.90;;;;;;5073090;28;19920;-80
2022/05/19 03:38:25;;;;;;;;;;;16.60;99.90;;;;;;5089048;28;19920;-80
2022/05/19 03:40:51;;;;;;;;;;;16.60;99.90;;;;;;5072783;28;19926;-80
2022/05/19 03:43:16;;;;;;;;;;;16.60;99.90;;;;;;5073121;28;20003;-79
2022/05/19 03:45:42;;;;;;;;;;;16.60;99.90;;;;;;5055171;28;19973;-80
2022/05/19 03:48:08;;;;;;;;;;;16.70;99.90;;;;;;5073276;28;20450;-80
2022/05/19 03:50:33;;;;;;;;;;;16.70;99.90;;;;;;5037828;28;19924;-80
2022/05/19 03:52:59;;;;;;;;;;;16.70;99.90;;;;;;5072697;28;20026;-80
2022/05/19 03:55:25;;;;;;;;;;;16.70;99.90;;;;;;5055106;28;19920;-79
2022/05/19 03:57:51;;;;;;;;;;;16.70;99.90;;;;;;5072649;28;19927;-80
2022/05/19 04:00:18;;;;;;;;;;;16.70;99.90;;;;;;5072518;28;19986;-80
2022/05/19 04:02:43;;;;;;;;;;;16.80;99.90;;;;;;5072886;28;19920;-79
2022/05/19 04:05:09;;;;;;;;;;;16.80;99.90;;;;;;5072772;28;19926;-79
2022/05/19 04:07:36;;;;;;;;;;;16.80;99.90;;;;;;5072403;28;20390;-80
2022/05/19 04:10:02;;;;;;;;;;;16.80;99.90;;;;;;5072487;28;20293;-80
2022/05/19 04:12:28;;;;;;;;;;;16.80;99.90;;;;;;5072360;28;19927;-79
2022/05/19 04:14:53;;;;;;;;;;;16.80;99.90;;;;;;5072665;28;19979;-80
2022/05/19 04:17:19;;;;;;;;;;;16.80;99.90;;;;;;5072517;28;19924;-80
2022/05/19 04:19:44;;;;;;;;;;;16.80;99.90;;;;;;5071945;28;20019;-80
2022/05/19 04:22:10;;;;;;;;;;;16.90;99.90;;;;;;5072084;28;19959;-80
2022/05/19 04:24:35;;;;;;;;;;;16.90;99.90;;;;;;5053743;28;20007;-80
2022/05/19 04:27:03;;;;;;;;;;;16.90;99.90;;;;;;5071942;28;20380;-80
2022/05/19 04:29:28;;;;;;;;;;;16.90;99.90;;;;;;5071919;28;20407;-80
2022/05/19 04:31:54;;;;;;;;;;;16.90;99.90;;;;;;5071573;28;20006;-80
2022/05/19 04:34:19;;;;;;;;;;;17.00;99.90;;;;;;5072278;28;19935;-80
2022/05/19 04:36:46;;;;;;;;;;;17.00;99.90;;;;;;5071356;28;20305;-80
2022/05/19 04:39:12;;;;;;;;;;;17.00;99.90;;;;;;5072051;28;20119;-80
2022/05/19 04:41:38;;;;;;;;;;;17.00;99.90;;;;;;5071980;28;20386;-79
2022/05/19 04:44:04;;;;;;;;;;;17.00;99.90;;;;;;5072086;28;19942;-80
2022/05/19 04:46:29;;;;;;;;;;;17.10;99.90;;;;;;5071875;28;19927;-80
2022/05/19 04:48:55;;;;;;;;;;;17.10;99.90;;;;;;5053710;28;20446;-80
2022/05/19 04:51:20;;;;;;;;;;;17.20;99.90;;;;;;5087271;28;19930;-80
2022/05/19 04:53:46;;;;;;;;;;;17.30;99.90;;;;;;5087672;28;19925;-80
2022/05/19 04:56:11;;;;;;;;;;;17.30;99.90;;;;;;5053774;28;19924;-80
2022/05/19 04:58:37;;;;;;;53.70;39.92;;;17.30;99.90;;;;;;5071054;28;20378;-80
2022/05/19 05:01:04;;;;;;;52.37;45.33;;;17.40;99.90;;;;;;5069713;28;20403;-80
2022/05/19 05:03:30;;;;;;;51.08;45.08;;;17.50;99.90;;;;;;5069999;28;20411;-80
2022/05/19 05:05:56;;;;;;;45.70;37.53;;;17.50;99.90;;;;;;5070737;28;20036;-79
2022/05/19 05:08:21;;;;;;;48.40;37.38;;;17.60;99.90;;;;;;5070963;28;20044;-79
2022/05/19 05:10:47;;;;;;;43.42;36.28;;;17.70;99.90;;;;;;5070475;28;20474;-80
2022/05/19 05:13:15;;;;;;;46.70;36.58;;;17.70;99.90;;;;;;5070794;28;20163;-80
2022/05/19 05:15:42;;;;;;;42.58;33.80;;;17.80;99.90;;;;;;5071056;28;20044;-80
2022/05/19 05:18:09;;;;;;;42.90;34.22;;;17.90;99.90;;;;;;5070320;28;20044;-80
2022/05/19 05:20:37;;;;;;;41.47;33.10;;;18.00;99.90;;;;;;5052957;28;20036;-80
2022/05/19 05:23:03;;;;;;;44.08;34.88;;;18.10;99.90;;;;;;5070825;28;20074;-80
2022/05/19 05:25:29;;;;;;;46.25;36.55;;;18.10;99.90;;;;;;5070638;28;20047;-80
2022/05/19 05:27:59;;;;;;;45.55;35.13;;;18.20;99.90;;;;;;5070789;28;20036;-80
2022/05/19 05:30:25;;;;;;;45.00;34.97;;;18.30;99.90;;;;;;5070213;28;20091;-80
2022/05/19 05:32:51;;;;;;;47.78;36.30;;;18.30;99.90;;;;;;5070176;28;20498;-79
2022/05/19 05:35:17;;;;;;;43.45;35.92;;;18.40;99.90;;;;;;5069490;28;20080;-80
2022/05/19 05:37:43;;;;;;;43.53;36.03;;;18.40;99.90;;;;;;5070072;28;20131;-79
2022/05/19 05:40:12;;;;;;;44.75;36.45;;;18.50;99.90;;;;;;5069947;28;20128;-79
2022/05/19 05:42:39;;;;;;;47.00;37.97;;;18.50;99.90;;;;;;5066991;28;20056;-81
2022/05/19 05:45:06;;;;;;;48.13;38.03;;;18.60;99.90;;;;;;5051864;28;20056;-79
2022/05/19 05:47:32;;;;;;;49.53;38.00;;;18.70;99.90;;;;;;5052312;28;20048;-79
2022/05/19 05:49:58;;;;;;;43.25;36.97;;;18.70;99.90;;;;;;5070108;28;20040;-79
2022/05/19 05:52:23;;;;;;;47.63;37.80;;;18.80;99.90;;;;;;5069543;28;20529;-79
2022/05/19 05:54:49;;;;;;;43.67;36.80;;;18.90;99.90;;;;;;5067759;28;20049;-79
2022/05/19 05:57:15;;;;;;;47.60;36.83;;;18.90;99.90;;;;;;5069892;28;20497;-79
2022/05/19 05:59:41;;;;;;;44.33;36.45;;;19.00;99.90;;;;;;5052685;28;20083;-80
2022/05/19 06:02:07;;;;;;;49.60;38.90;;;19.00;99.90;;;;;;5069779;28;20474;-79
2022/05/19 06:04:33;;;;;;;46.72;38.30;;;19.00;99.90;;;;;;5069886;28;20079;-79
2022/05/19 06:06:59;;;;;;;46.38;38.05;;;19.00;99.90;;;;;;5069608;28;20044;-79
2022/05/19 06:09:24;;;;;;;49.17;40.60;;;19.10;99.90;;;;;;5068753;28;20555;-80
2022/05/19 06:11:52;;;;;;;;;;;19.10;99.90;;;;;;5071106;28;20417;-79
2022/05/19 06:14:18;;;;;;;;;;;19.10;99.90;;;;;;5070163;28;20329;-80
2022/05/19 06:16:44;;;;;;;;;;;19.20;99.90;;;;;;5052956;28;19921;-80
2022/05/19 06:19:09;;;;;;;;;;;19.30;99.90;;;;;;5081105;28;20450;-80
2022/05/19 06:21:36;;;;;;;;;;;19.30;99.90;;;;;;5090252;28;19967;-80
2022/05/19 06:24:03;;;;;;;;;;;19.50;99.90;;;;;;5090230;28;20003;-79
2022/05/19 06:26:33;;;;;;;;;;;19.60;99.90;;;;;;5088064;28;19920;-80
2022/05/19 06:28:58;;;;;;;;;;;19.70;99.90;;;;;;5071775;28;19931;-80
2022/05/19 06:31:24;;;;;;;;;;;19.80;99.90;;;;;;5089980;28;19919;-80
2022/05/19 06:33:50;;;;;;;35.63;29.77;;;20.00;99.90;;;;;;5088415;28;19920;-80
2022/05/19 06:36:15;;;;;;;33.75;28.02;;;20.10;99.90;;;;;;5066802;28;20130;-79
2022/05/19 06:38:41;;;;;;;36.45;27.70;;;20.10;99.90;;;;;;5084804;28;20055;-79
2022/05/19 06:43:51;;;;;;;29.73;25.23;;;20.10;99.90;;;;;;5068180;28;20124;-80
2022/05/19 06:46:16;;;;;;;34.53;25.67;;;20.10;99.90;;;;;;5067757;28;20127;-80
2022/05/19 06:48:43;;;;;;;29.85;24.85;;;20.10;99.90;;;;;;5068142;28;20459;-80
2022/05/19 06:51:09;;;;;;;29.85;24.73;;;20.10;99.90;;;;;;5046527;28;20064;-80
2022/05/19 06:53:36;;;;;;;28.55;23.52;;;20.20;99.90;;;;;;5048476;28;20446;-79
2022/05/19 06:56:02;;;;;;;31.15;25.65;;;20.20;99.90;;;;;;5065317;28;20044;-79
2022/05/19 06:58:27;;;;;;;24.33;19.77;;;20.20;99.90;;;;;;5067017;28;20044;-79
2022/05/19 07:00:53;;;;;;;23.27;17.70;;;20.30;99.90;;;;;;5099776;28;20048;-79
2022/05/19 07:03:19;;;;;;;21.17;18.73;;;20.40;99.90;;;;;;5046016;28;20466;-79
2022/05/19 07:05:44;;;;;;;21.40;17.17;;;20.50;99.90;;;;;;5047972;28;20068;-79
2022/05/19 07:08:10;;;;;;;22.95;18.02;;;20.40;99.90;;;;;;5047612;28;20128;-79
2022/05/19 07:10:36;;;;;;;23.13;18.88;;;20.50;99.90;;;;;;5058227;28;20048;-80
2022/05/19 07:13:01;;;;;;;22.20;18.95;;;20.60;99.90;;;;;;5046196;28;20043;-80
2022/05/19 07:15:28;;;;;;;24.75;20.05;;;20.70;99.90;;;;;;5046892;28;20040;-79
2022/05/19 07:17:54;;;;;;;24.13;20.25;;;20.70;99.90;;;;;;5047504;28;20132;-80
2022/05/19 07:23:06;;;;;;;25.95;21.60;;;20.50;99.90;;;;;;5045710;28;20099;-80
2022/05/19 07:25:32;;;;;;;27.23;22.48;;;20.50;99.90;;;;;;5048234;28;20398;-80
2022/05/19 07:27:58;;;;;;;29.02;23.65;;;20.50;99.90;;;;;;5059138;28;20039;-80
2022/05/19 07:30:23;;;;;;;26.83;22.02;;;20.30;99.90;;;;;;5049136;28;20037;-80
2022/05/19 07:32:49;;;;;;;28.23;23.25;;;20.30;99.90;;;;;;5047110;28;20132;-80
2022/05/19 07:35:16;;;;;;;29.65;24.23;;;20.20;99.90;;;;;;5049067;28;20071;-80
2022/05/19 07:37:42;;;;;;;32.42;24.98;;;20.10;99.90;;;;;;5047611;28;20049;-80
2022/05/19 07:40:09;;;;;;;28.45;23.20;;;19.90;99.90;;;;;;5048784;28;20480;-80
2022/05/19 07:42:34;;;;;;;33.25;24.48;;;19.80;99.90;;;;;;5061574;28;20090;-79
2022/05/19 07:45:01;;;;;;;30.70;23.15;;;19.70;99.90;;;;;;5067933;28;20044;-79
2022/05/19 07:47:29;;;;;;;31.10;24.25;;;19.60;99.90;;;;;;5067978;28;20123;-80
2022/05/19 07:49:56;;;;;;;28.88;22.13;;;19.50;99.90;;;;;;5062870;28;20040;-80
2022/05/19 07:52:22;;;;;;;26.58;20.48;;;19.40;99.90;;;;;;5064934;28;20144;-80
2022/05/19 07:54:48;;;;;;;27.13;20.35;;;19.40;99.90;;;;;;5068094;28;20040;-79
2022/05/19 07:57:14;;;;;;;;;;;19.30;99.90;;;;;;5068542;28;20082;-80
2022/05/19 07:59:39;;;;;;;;;;;19.30;99.90;;;;;;5089991;28;19974;-80
2022/05/19 08:02:06;;;;;;;;;;;19.20;99.90;;;;;;5092960;28;19931;-80
2022/05/19 08:04:31;;;;;;;;;;;19.20;99.90;;;;;;5093000;28;19926;-80
2022/05/19 08:06:57;;;;;;;;;;;19.20;99.90;;;;;;5092297;28;19920;-80
2022/05/19 08:12:07;;;;;;;;;;;19.30;99.90;;;;;;5071054;28;19932;-80
2022/05/19 08:17:37;;;;;;;;;;;19.30;99.90;;;;;;4974595;28;20060;-80
2022/05/19 08:20:04;;;;;;;;;;;19.20;99.90;;;;;;4990832;28;20029;-80
2022/05/19 08:22:29;;;;;;;;;;;19.20;99.90;;;;;;5028924;28;20365;-80
2022/05/19 08:24:55;;;;;;;;;;;19.20;99.90;;;;;;5074232;28;19925;-80
2022/05/19 08:27:21;;;;;;;15.98;10.13;;;19.20;99.90;;;;;;5075613;28;19926;-80
2022/05/19 08:29:47;;;;;;;23.90;10.02;;;19.10;99.90;;;;;;5092199;28;20126;-80
2022/05/19 08:32:13;;;;;;;20.17;10.13;;;19.10;99.90;;;;;;5089157;28;20048;-80
2022/05/19 08:34:39;;;;;;;22.63;11.15;;;19.00;99.90;;;;;;5073792;28;20509;-79
2022/05/19 08:37:05;;;;;;;22.52;12.05;;;19.00;99.90;;;;;;5074011;28;20124;-80
2022/05/19 08:39:31;;;;;;;27.80;12.38;;;19.00;99.90;;;;;;5089326;28;20040;-80
2022/05/19 08:42:01;;;;;;;24.42;12.32;;;18.90;99.90;;;;;;5091624;28;20050;-80
2022/05/19 08:44:41;;;;;;;28.92;11.95;;;18.90;99.90;;;;;;5080508;28;20040;-80
2022/05/19 08:47:09;;;;;;;19.20;11.23;;;18.90;99.90;;;;;;5091668;28;20044;-80
2022/05/19 08:49:46;;;;;;;18.52;11.13;;;19.00;99.90;;;;;;5085554;28;20421;-80
2022/05/19 08:52:11;;;;;;;18.83;10.02;;;19.00;99.90;;;;;;5058979;28;20051;-79
2022/05/19 08:54:40;;;;;;;16.08;10.27;;;19.00;99.90;;;;;;5071287;28;20064;-79
2022/05/19 08:57:14;;;;;;;20.70;10.27;;;19.00;99.90;;;;;;5053508;28;20053;-80
2022/05/19 08:59:46;;;;;;;19.40;10.30;;;19.10;99.90;;;;;;5076821;28;20496;-80
2022/05/19 09:02:20;;;;;;;16.58;9.38;;;19.20;99.90;;;;;;5069390;28;20044;-80
2022/05/19 09:05:07;;;;;;;19.00;10.88;;;19.30;99.90;;;;;;5075745;28;20032;-80
2022/05/19 09:10:37;;;;;;;22.65;11.82;;;19.40;99.90;;;;;;5074192;28;20424;-80
2022/05/19 09:13:06;;;;;;;21.33;10.43;;;19.60;99.90;;;;;;5070997;28;20049;-78
2022/05/19 09:15:33;;;;;;;17.15;10.90;;;19.70;99.90;;;;;;5068656;28;20528;-80
2022/05/19 09:17:59;;;;;;;19.08;11.05;;;19.80;99.90;;;;;;5074570;28;20040;-80
2022/05/19 09:20:40;;;;;;;24.95;13.02;;;19.90;99.90;;;;;;5086657;28;20563;-80
2022/05/19 09:23:05;;;;;;;;;;;20.10;99.90;;;;;;5069441;28;20051;-80
2022/05/19 09:25:32;;;;;;;;;;;20.40;99.90;;;;;;5082162;28;19920;-80
2022/05/19 09:28:00;;;;;;;;;;;20.60;99.90;;;;;;5081971;28;19960;-80
2022/05/19 09:30:32;;;;;;;22.27;16.20;;;20.80;99.90;;;;;;5084162;28;19927;-80
2022/05/19 09:32:58;;;;;;;17.85;15.60;;;21.00;99.90;;;;;;5068865;28;20474;-80
2022/05/19 09:35:38;;;;;;;21.75;15.32;;;21.20;99.90;;;;;;5087299;28;20513;-80
2022/05/19 09:38:17;;;;;;;22.15;15.30;;;21.50;99.90;;;;;;5053262;28;20049;-79
2022/05/19 09:40:46;;;;;;;17.63;13.43;;;21.80;99.90;;;;;;5070296;28;20048;-80
2022/05/19 09:43:25;;;;;;;19.02;14.07;;;22.00;99.90;;;;;;5070172;28;20528;-80
2022/05/19 09:45:58;;;;;;;18.83;13.45;;;22.10;99.90;;;;;;5085077;28;20127;-80
2022/05/19 09:48:30;;;;;;;;;;;22.10;99.90;;;;;;5070573;28;20045;-80
2022/05/19 09:51:10;;;;;;;19.55;14.30;;;22.20;99.90;;;;;;5069176;28;19947;-80
2022/05/19 09:53:46;;;;;;;21.83;16.20;;;22.30;99.90;;;;;;5069175;28;20074;-80
2022/05/19 09:56:16;;;;;;;23.30;15.98;;;22.40;99.90;;;;;;5054806;28;20388;-80
2022/05/19 09:58:44;;;;;;;17.23;14.15;;;22.60;99.90;;;;;;5070192;28;20080;-81
2022/05/19 10:01:38;;;;;;;17.85;14.57;;;22.60;99.90;;;;;;5084199;28;20067;-80
2022/05/19 10:04:27;;;;;;;19.05;14.95;;;22.60;99.90;;;;;;5088375;28;20058;-81
2022/05/19 10:07:06;;;;;;;19.77;15.15;;;22.70;99.90;;;;;;5053243;28;20742;-81
2022/05/19 10:09:33;;;;;;;25.80;15.02;;;22.80;99.90;;;;;;5069688;28;20059;-80
2022/05/19 10:12:08;;;;;;;18.75;13.90;;;22.90;99.90;;;;;;5068926;28;20066;-81
2022/05/19 10:14:35;;;;;;;19.75;14.23;;;23.00;99.90;;;;;;5068083;28;20528;-81
2022/05/19 10:17:26;;;;;;;17.63;14.38;;;23.10;99.90;;;;;;5068495;28;20451;-81
2022/05/19 10:19:55;;;;;;;15.95;12.88;;;23.20;99.90;;;;;;5051748;28;20044;-81
2022/05/19 10:22:39;;;;;;;22.75;15.98;;;23.10;99.90;;;;;;5073181;28;20123;-81
2022/05/19 10:25:25;;;;;;;26.63;18.52;;;23.10;99.90;;;;;;5071097;28;20036;-81
2022/05/19 10:31:18;;;;;;;20.15;16.65;;;23.30;99.90;;;;;;5052379;28;20635;-80
2022/05/19 10:33:56;;;;;;;21.52;15.23;;;23.50;99.90;;;;;;5067790;28;20063;-81
2022/05/19 10:36:28;;;;;;;;;;;23.90;99.90;;;;;;5067848;28;20773;-81
2022/05/19 10:39:31;;;;;;;15.35;12.13;;;24.20;99.90;;;;;;5068128;28;19924;-81
2022/05/19 10:42:21;;;;;;;15.43;12.38;;;24.40;99.90;;;;;;5068035;28;20040;-81
2022/05/19 10:44:55;;;;;;;;;;;24.70;99.90;;;;;;5068634;28;20048;-81
2022/05/19 10:47:24;;;;;;;;;;;25.00;99.90;;;;;;5068345;28;19966;-81
2022/05/19 10:49:50;;;;;;;;;;;25.30;99.90;;;;;;5068648;28;19920;-81
2022/05/19 10:52:53;;;;;;;;;;;25.50;99.90;;;;;;5072427;28;19925;-81
2022/05/19 10:55:33;;;;;;;;;;;25.70;99.90;;;;;;5037241;28;19923;-81
2022/05/19 10:57:59;;;;;;;10.88;9.07;;;26.00;99.90;;;;;;5070296;28;19920;-81
2022/05/19 11:00:33;;;;;;;;;;;26.30;99.40;;;;;;5075621;28;20150;-81
2022/05/19 11:03:01;;;;;;;;;;;26.50;98.50;;;;;;5066040;28;19920;-81
2022/05/19 11:05:27;;;;;;;;;;;26.80;98.80;;;;;;5082208;28;19946;-82
2022/05/19 11:08:12;;;;;;;;;;;27.10;98.30;;;;;;5074370;28;19920;-81
2022/05/19 11:10:37;;;;;;;;;;;27.20;96.90;;;;;;5069719;28;19955;-81
2022/05/19 11:13:03;;;;;;;;;;;27.00;95.90;;;;;;5074049;28;19924;-81
2022/05/19 11:15:28;;;;;;;;;;;26.80;96.70;;;;;;5061168;28;20006;-81
2022/05/19 11:17:56;;;;;;;;;;;26.80;96.80;;;;;;5082469;28;20405;-81
2022/05/19 11:20:25;;;;;;;;;;;26.80;97.20;;;;;;5069171;28;20452;-82
2022/05/19 11:22:52;;;;;;;;;;;26.90;95.50;;;;;;5079412;28;19920;-81
2022/05/19 11:28:16;;;;;;;;;;;26.60;95.70;;;;;;5080537;28;19927;-81
2022/05/19 11:30:45;;;;;;;;;;;26.40;96.30;;;;;;5051585;28;20301;-82
2022/05/19 11:33:21;;;;;;;;;;;26.30;96.10;;;;;;5069743;28;20416;-81
2022/05/19 11:35:50;;;;;;;;;;;26.30;96.00;;;;;;5039135;28;20278;-82
2022/05/19 11:38:59;;;;;;;12.40;10.70;;;26.60;96.80;;;;;;5088442;28;19924;-81
2022/05/19 11:41:25;;;;;;;;;;;26.90;95.50;;;;;;5091843;28;20446;-82
2022/05/19 11:43:57;;;;;;;;;;;26.80;95.20;;;;;;5078785;28;20290;-82
2022/05/19 11:46:25;;;;;;;;;;;26.70;95.10;;;;;;5069814;28;19920;-82
2022/05/19 11:57:23;;;;;;;;;;;26.60;95.30;;;;;;5071918;28;19970;-81
2022/05/19 11:59:52;;;;;;;;;;;26.50;95.20;;;;;;5072334;28;20023;-81
2022/05/19 12:02:25;;;;;;;;;;;26.30;95.40;;;;;;5074388;28;19924;-81
2022/05/19 12:04:52;;;;;;;;;;;26.00;95.70;;;;;;5035173;28;20461;-81
2022/05/19 12:07:22;;;;;;;;;;;25.80;95.40;;;;;;5035162;28;19920;-81
2022/05/19 12:09:49;;;;;;;;;;;25.70;96.20;;;;;;5034749;28;20020;-81
2022/05/19 12:12:22;;;;;;;;;;;25.70;96.40;;;;;;5061787;28;19990;-81
2022/05/19 12:15:03;;;;;;;14.68;13.20;;;25.80;96.60;;;;;;5052112;28;19920;-81
2022/05/19 12:17:37;;;;;;;;;;;26.10;96.70;;;;;;5065813;28;20159;-81
2022/05/19 12:20:45;;;;;;;16.42;14.85;;;26.40;97.00;;;;;;5092516;28;19919;-81
2022/05/19 12:23:32;;;;;;;17.73;15.88;;;26.60;97.40;;;;;;5091875;28;20055;-81
2022/05/19 12:26:24;;;;;;;17.60;15.80;;;26.70;96.40;;;;;;5087392;28;20111;-80
2022/05/19 12:28:51;;;;;;;18.35;14.93;;;26.70;96.10;;;;;;5082830;28;20634;-79
2022/05/19 12:34:06;;;;;;;16.55;14.85;;;26.60;96.30;;;;;;5091035;28;20132;-80
2022/05/19 12:36:51;;;;;;;15.70;14.10;;;26.50;96.30;;;;;;5056849;28;20040;-80
2022/05/19 12:39:17;;;;;;;17.20;13.65;;;26.40;96.00;;;;;;5091337;28;20156;-81
2022/05/19 12:41:49;;;;;;;14.20;12.70;;;26.30;96.40;;;;;;5068727;28;20131;-81
2022/05/19 12:44:40;;;;;;;15.43;13.93;;;26.20;97.00;;;;;;5072164;28;20041;-81
2022/05/19 12:47:11;;;;;;;15.40;13.90;;;26.20;97.20;;;;;;5090764;28;20494;-81
2022/05/19 12:49:37;;;;;;;17.73;14.52;;;26.20;97.50;;;;;;5065409;28;20052;-81
2022/05/19 12:52:13;;;;;;;;;;;26.20;97.30;;;;;;5051735;28;20057;-80
2022/05/19 12:54:50;;;;;;;;;;;26.20;97.80;;;;;;5064095;28;19926;-81
2022/05/19 12:57:15;;;;;;;;;;;26.20;97.70;;;;;;5073689;28;19948;-81
2022/05/19 13:00:05;;;;;;;;;;;26.10;97.90;;;;;;5108237;28;19927;-81
2022/05/19 13:02:46;;;;;;;;;;;26.00;97.80;;;;;;5090283;28;19920;-81
2022/05/19 13:05:22;;;;;;;;;;;25.90;98.10;;;;;;5053805;28;19965;-81
2022/05/19 13:07:56;;;;;;;;;;;25.70;98.40;;;;;;5071634;28;19924;-81
2022/05/19 13:10:24;;;;;;;;;;;25.60;98.10;;;;;;5069721;28;19924;-81
2022/05/19 13:13:04;;;;;;;;;;;25.50;98.30;;;;;;5071324;28;19920;-81
2022/05/19 13:15:31;;;;;;;;;;;25.30;98.40;;;;;;5099561;28;20006;-81
2022/05/19 13:17:58;;;;;;;;;;;25.10;98.40;;;;;;5091837;28;19920;-81
2022/05/19 13:20:25;;;;;;;;;;;24.90;98.90;;;;;;5091192;28;19963;-81
2022/05/19 13:22:59;;;;;;;;;;;24.80;99.50;;;;;;5091433;28;20381;-81
2022/05/19 13:25:25;;;;;;;;;;;24.60;99.90;;;;;;5071909;28;19925;-80
2022/05/19 13:30:47;;;;;;;;;;;24.10;99.90;;;;;;5049261;28;19950;-81
2022/05/19 13:33:21;;;;;;;;;;;23.80;99.90;;;;;;5069081;28;20383;-80
2022/05/19 13:35:56;;;;;;;;;;;23.40;99.90;;;;;;5067127;28;20380;-80
2022/05/19 13:38:22;;;;;;;;;;;22.90;99.90;;;;;;5081164;28;19926;-80
2022/05/19 13:40:49;;;;;;;;;;;22.40;99.90;;;;;;5073505;28;19970;-80
2022/05/19 13:43:21;;;;;;;;;;;21.90;99.90;;;;;;5070948;28;19920;-81
2022/05/19 13:45:47;;;;;;;;;;;21.40;99.90;;;;;;5065281;28;19934;-82
2022/05/19 13:48:31;;;;;;;;;;;21.00;99.90;;;;;;5069346;28;20359;-81
2022/05/19 13:51:00;;;;;;;;;;;20.70;99.90;;;;;;5081298;28;20641;-81
2022/05/19 13:53:26;;;;;;;;;;;20.50;99.90;;;;;;5080320;28;19920;-82
2022/05/19 13:55:57;;;;;;;;;;;20.20;99.90;;;;;;5061499;28;19927;-82
2022/05/19 13:58:23;;;;;;;;;;;19.90;99.90;;;;;;5050495;28;19931;-81
2022/05/19 14:00:49;;;;;;;;;;;19.70;99.90;;;;;;5033106;28;20363;-82
2022/05/19 14:03:15;;;;;;;;;;;19.50;99.90;;;;;;5059186;28;19997;-83
2022/05/19 14:05:41;;;;;;;;;;;19.30;99.90;;;;;;5089841;28;19920;-83
2022/05/19 14:08:09;;;;;;;;;;;19.10;99.90;;;;;;5090576;28;19950;-83
2022/05/19 14:10:46;;;;;;;;;;;19.00;99.90;;;;;;5069252;28;19947;-83
2022/05/19 14:13:14;;;;;;;;;;;19.00;99.90;;;;;;5050669;28;20289;-83
2022/05/19 14:15:51;;;;;;;;;;;19.00;99.90;;;;;;5055816;28;20002;-82
2022/05/19 14:18:25;;;;;;;;;;;18.90;99.90;;;;;;5090617;28;19967;-83